Main page
METAR-TAF:

METAR-TAF

Airports :

Simón Bolívar International Airport

Caracas, Venezuela

latitude: 10-36N, longitude: 066-59W, elevation: 43 m

Current weather observation

The report was made 1 hour and 4 minutes ago, at 09:02 UTC
Temperature
Pressure

METAR: SVMI 090902Z AUTO NIL

Time: 06:06 (10:06 UTC)

Forecast

The report was made 6 hours and 6 minutes ago, at 04:00 UTC
Forecast valid from 09 at 06 UTC to 10 at 06 UTC
Wind 4 kt from the North/Northeast
Visibility 10 km or more
Scattered clouds at a height of 1600 ft
Scattered clouds at a height of 8000 ft
Becoming
from 09 at 06 UTC to 09 at 10 UTC
Wind 2 kt from the East
Visibility: 9000 m
Broken clouds at a height of 1600 ft
light drizzle

TAF: SVMI 090400Z 0906/1006 02004KT 9999 SCT016 SCT080 TX31/0917Z TN23/0917Z BECMG 0906/0910 09002KT 9000 -DZ BKN016

Weather observations and forecasts of more than 4000 airports (METAR and TAF reports).

The available stations are represented by yellow and red dots on the map.

Hover mouse over dot to see the name of the station.

Then click to see weather observations and forecasts.

To change the map : click on the green buttons with a black cross to zoom in, on the green button with a dash to zoom out, or on the green arrows for adjacent maps.


METAR-TAF: